Terminal Aerodrome Forecast
Issued by NWS

Home | Current Version | Previous Version | Text Only | Print | Product List | Glossary On
Versions: 1 2 3 4 5 6 7 8 9 10 11 12 13 14 15 16 17 18 19 20 21 22 23 24 25 26 27 28 29 30 31 32 33 34 35 36 37
000
FTUS46 KEKA 021700
TAFCEC
TAF
KCEC 021736Z 0218/0318 30009KT P6SM FEW005
     FM022100 33015G25KT P6SM SCT008
     FM030600 35010KT 6SM BR SCT005 SCT250
     FM030900 35006KT 3SM BR BKN005 BKN250
     FM031600 00000KT 5SM BR SCT005 BKN250=

USA.gov is the U.S. government's official web portal to all federal, state and local government web resources and services.